createdAt,value
2022-08-12T00:00:29.012Z,98513.38
2022-08-12T00:02:46.410Z,98514.22
2022-08-12T00:05:07.668Z,98514.22
2022-08-12T00:07:27.204Z,98515.31
2022-08-12T00:09:44.773Z,98517.00
2022-08-12T00:12:07.277Z,98516.16
2022-08-12T00:14:24.869Z,98516.16
2022-08-12T00:16:42.922Z,98517.97
2022-08-12T00:19:00.427Z,98504.97
2022-08-12T00:21:20.636Z,98514.63
2022-08-12T00:23:38.503Z,98509.44
2022-08-12T00:26:20.654Z,98506.91
2022-08-12T00:28:35.525Z,98507.06
2022-08-12T00:30:52.916Z,98513.59
2022-08-12T00:33:10.707Z,98502.00
2022-08-12T00:35:36.514Z,98509.13
2022-08-12T00:37:56.960Z,98512.72
2022-08-12T00:40:14.246Z,98511.44
2022-08-12T00:42:19.962Z,98515.19
2022-08-12T00:44:26.335Z,98512.09
2022-08-12T00:46:43.416Z,98508.97
2022-08-12T00:48:50.696Z,98506.56
2022-08-12T00:51:07.999Z,98505.03
2022-08-12T00:53:19.164Z,98511.16
2022-08-12T00:55:24.266Z,98508.91
2022-08-12T00:57:31.643Z,98508.19
2022-08-12T00:59:37.570Z,98499.41
2022-08-12T01:02:02.250Z,98503.13
2022-08-12T01:04:28.265Z,98499.41
2022-08-12T01:06:50.912Z,98500.63
2022-08-12T01:09:11.157Z,98498.59
2022-08-12T01:11:33.218Z,98503.56
2022-08-12T01:13:42.347Z,98505.59
2022-08-12T01:15:48.341Z,98501.38
2022-08-12T01:17:53.998Z,98496.25
2022-08-12T01:20:02.930Z,98496.34
2022-08-12T01:22:25.978Z,98499.88
2022-08-12T01:24:52.191Z,98501.63
2022-08-12T01:26:57.949Z,98501.19
2022-08-12T01:29:03.961Z,98499.75
2022-08-12T01:31:13.315Z,98499.88
2022-08-12T01:33:24.097Z,98503.47
2022-08-12T01:35:30.496Z,98496.50
2022-08-12T01:37:40.649Z,98494.13
2022-08-12T01:40:36.732Z,98494.59
2022-08-12T01:42:23.192Z,98499.31
2022-08-12T01:44:31.220Z,98494.97
2022-08-12T01:46:48.173Z,98494.13
2022-08-12T01:49:07.555Z,98496.19
2022-08-12T01:52:04.555Z,98497.50
2022-08-12T01:54:09.612Z,98494.88
2022-08-12T01:56:18.725Z,98489.94
2022-08-12T01:58:32.026Z,98493.78
2022-08-12T02:00:55.259Z,98488.59
2022-08-12T02:03:12.580Z,98484.50
2022-08-12T02:05:40.363Z,98489.44
2022-08-12T02:08:10.406Z,98484.41
2022-08-12T02:10:50.401Z,98487.03
2022-08-12T02:13:13.486Z,98483.56
2022-08-12T02:15:26.606Z,98476.47
2022-08-12T02:17:55.082Z,98476.47
2022-08-12T02:20:12.876Z,98479.22
2022-08-12T02:22:29.423Z,98475.84
2022-08-12T02:24:35.757Z,98472.59
2022-08-12T02:26:43.327Z,98478.88
2022-08-12T02:28:52.214Z,98472.84
2022-08-12T02:30:57.978Z,98475.63
2022-08-12T02:33:04.741Z,98473.69
2022-08-12T02:35:15.017Z,98471.19
2022-08-12T02:37:21.318Z,98473.22
2022-08-12T02:39:28.998Z,98477.66
2022-08-12T02:41:37.448Z,98472.50
2022-08-12T02:43:49.444Z,98475.25
2022-08-12T02:46:03.438Z,98471.28
2022-08-12T02:48:12.066Z,98472.38
2022-08-12T02:50:20.542Z,98476.34
2022-08-12T02:52:27.094Z,98470.56
2022-08-12T02:54:31.971Z,98465.53
2022-08-12T02:56:40.630Z,98472.84
2022-08-12T02:58:46.981Z,98467.81
2022-08-12T03:00:52.001Z,98468.75
2022-08-12T03:03:01.247Z,98468.63
2022-08-12T03:05:07.452Z,98463.56
2022-08-12T03:07:17.731Z,98460.78
2022-08-12T03:09:25.405Z,98461.00
2022-08-12T03:11:42.729Z,98455.00
2022-08-12T03:13:54.662Z,98468.75
2022-08-12T03:16:01.048Z,98465.53
2022-08-12T03:18:24.216Z,98465.63
2022-08-12T03:20:31.841Z,98459.97
2022-08-12T03:22:38.038Z,98458.91
2022-08-12T03:24:45.350Z,98465.03
2022-08-12T03:26:51.494Z,98463.44
2022-08-12T03:28:58.178Z,98467.06
2022-08-12T03:31:05.685Z,98461.88
2022-08-12T03:33:16.369Z,98463.19
2022-08-12T03:35:41.202Z,98461.72
2022-08-12T03:37:48.111Z,98456.91
2022-08-12T03:39:53.006Z,98456.41
2022-08-12T03:41:59.842Z,98456.19
2022-08-12T03:44:22.797Z,98455.00
2022-08-12T03:46:47.026Z,98460.50
2022-08-12T03:49:07.151Z,98462.44
2022-08-12T03:51:26.493Z,98464.09
2022-08-12T03:53:45.951Z,98460.00
2022-08-12T03:56:03.273Z,98465.91
2022-08-12T03:58:21.844Z,98471.91
2022-08-12T04:00:28.624Z,98469.50
2022-08-12T04:02:35.106Z,98467.69
2022-08-12T04:04:45.600Z,98475.72
2022-08-12T04:06:50.800Z,98471.50
2022-08-12T04:08:57.799Z,98473.75
2022-08-12T04:11:15.087Z,98473.47
2022-08-12T04:13:25.724Z,98476.69
2022-08-12T04:15:32.707Z,98477.41
2022-08-12T04:17:39.538Z,98482.91
2022-08-12T04:20:11.354Z,98486.38
2022-08-12T04:22:16.305Z,98485.06
2022-08-12T04:24:24.834Z,98485.78
2022-08-12T04:26:30.299Z,98481.97
2022-08-12T04:28:35.956Z,98484.84
2022-08-12T04:30:41.574Z,98492.75
2022-08-12T04:32:48.136Z,98489.16
2022-08-12T04:34:53.723Z,98486.28
2022-08-12T04:37:01.447Z,98486.91
2022-08-12T04:39:07.937Z,98487.63
2022-08-12T04:41:13.412Z,98482.22
2022-08-12T04:44:00.813Z,98482.88
2022-08-12T04:45:43.567Z,98480.56
2022-08-12T04:47:49.159Z,98485.59
2022-08-12T04:49:54.025Z,98482.97
2022-08-12T04:52:03.349Z,98481.69
2022-08-12T04:54:08.738Z,98490.34
2022-08-12T04:56:13.782Z,98482.19
2022-08-12T04:58:29.683Z,98487.97
2022-08-12T05:00:36.097Z,98484.00
2022-08-12T05:02:41.695Z,98486.41
2022-08-12T05:04:47.923Z,98483.31
2022-08-12T05:06:52.954Z,98479.69
2022-08-12T05:09:01.623Z,98483.53
2022-08-12T05:11:07.785Z,98495.25
2022-08-12T05:13:15.850Z,98494.31
2022-08-12T05:15:29.336Z,98491.69
2022-08-12T05:17:34.653Z,98490.63
2022-08-12T05:19:40.072Z,98495.53
2022-08-12T05:21:49.185Z,98503.22
2022-08-12T05:23:54.943Z,98500.13
2022-08-12T05:26:03.219Z,98498.50
2022-08-12T05:28:11.524Z,98502.81
2022-08-12T05:30:18.229Z,98503.78
2022-08-12T05:32:26.129Z,98504.53
2022-08-12T05:34:31.495Z,98504.28
2022-08-12T05:36:36.676Z,98505.00
2022-08-12T05:38:54.069Z,98503.09
2022-08-12T05:40:59.115Z,98499.16
2022-08-12T05:43:06.612Z,98506.09
2022-08-12T05:45:13.152Z,98506.00
2022-08-12T05:47:18.268Z,98503.03
2022-08-12T05:49:23.034Z,98505.34
2022-08-12T05:51:39.879Z,98514.47
2022-08-12T05:53:46.612Z,98512.09
2022-08-12T05:55:51.161Z,98511.25
2022-08-12T05:57:56.768Z,98515.72
2022-08-12T06:00:04.348Z,98513.00
2022-08-12T06:02:16.435Z,98519.63
2022-08-12T06:04:21.441Z,98524.06
2022-08-12T06:06:27.840Z,98515.69
2022-08-12T06:08:34.837Z,98515.78
2022-08-12T06:10:42.988Z,98521.41
2022-08-12T06:12:49.329Z,98521.53
2022-08-12T06:14:55.783Z,98521.22
2022-08-12T06:17:03.493Z,98522.75
2022-08-12T06:19:08.370Z,98524.91
2022-08-12T06:21:14.659Z,98523.81
2022-08-12T06:23:19.869Z,98516.13
2022-08-12T06:25:27.872Z,98516.63
2022-08-12T06:27:33.453Z,98509.66
2022-08-12T06:30:09.732Z,98512.06
2022-08-12T06:32:07.158Z,98518.06
2022-08-12T06:35:24.213Z,98512.06
2022-08-12T06:36:40.719Z,98507.22
2022-08-12T06:38:49.764Z,98510.56
2022-08-12T06:41:09.757Z,98504.09
2022-08-12T06:43:14.671Z,98505.28
2022-08-12T06:45:19.817Z,98509.38
2022-08-12T06:47:27.113Z,98508.19
2022-08-12T06:49:36.564Z,98510.47
2022-08-12T06:51:41.999Z,98502.38
2022-08-12T06:53:59.935Z,98502.69
2022-08-12T06:56:08.181Z,98506.38
2022-08-12T06:58:16.671Z,98494.63
2022-08-12T07:00:30.694Z,98497.06
2022-08-12T07:02:40.748Z,98498.56
2022-08-12T07:04:47.578Z,98492.72
2022-08-12T07:06:52.463Z,98494.16
2022-08-12T07:08:57.331Z,98500.03
2022-08-12T07:11:03.593Z,98488.56
2022-08-12T07:13:09.748Z,98494.16
2022-08-12T07:15:14.577Z,98496.72
2022-08-12T07:17:19.510Z,98494.38
2022-08-12T07:19:40.586Z,98496.81
2022-08-12T07:21:59.488Z,98491.25
2022-08-12T07:24:08.590Z,98491.03
2022-08-12T07:26:16.146Z,98488.28
2022-08-12T07:28:24.564Z,98486.31
2022-08-12T07:30:30.664Z,98499.44
2022-08-12T07:32:35.615Z,98488.41
2022-08-12T07:34:43.465Z,98494.97
2022-08-12T07:36:49.127Z,98487.00
2022-08-12T07:38:53.990Z,98475.09
2022-08-12T07:41:07.330Z,98475.56
2022-08-12T07:43:12.965Z,98478.75
2022-08-12T07:45:17.928Z,98482.09
2022-08-12T07:47:23.129Z,98477.19
2022-08-12T07:49:28.740Z,98478.97
2022-08-12T07:51:37.142Z,98481.47
2022-08-12T07:53:50.157Z,98475.81
2022-08-12T07:56:06.299Z,98471.72
2022-08-12T07:58:11.174Z,98477.03
2022-08-12T08:00:18.502Z,98480.81
2022-08-12T08:02:26.942Z,98476.03
2022-08-12T08:04:44.220Z,98476.63
2022-08-12T08:06:52.937Z,98470.88
2022-08-12T08:08:58.368Z,98463.81
2022-08-12T08:11:21.387Z,98466.53
2022-08-12T08:13:26.364Z,98460.84
2022-08-12T08:16:01.343Z,98464.06
2022-08-12T08:18:02.867Z,98462.75
2022-08-12T08:20:10.254Z,98471.38
2022-08-12T08:22:17.702Z,98466.31
2022-08-12T08:24:39.925Z,98468.13
2022-08-12T08:26:45.519Z,98472.16
2022-08-12T08:28:51.467Z,98473.69
2022-08-12T08:30:56.410Z,98461.72
2022-08-12T08:33:01.126Z,98469.34
2022-08-12T08:35:10.601Z,98468.59
2022-08-12T08:37:19.170Z,98466.31
2022-08-12T08:39:27.544Z,98457.72
2022-08-12T08:42:16.495Z,98471.16
2022-08-12T08:44:11.304Z,98456.13
2022-08-12T08:46:16.429Z,98468.72
2022-08-12T08:48:22.283Z,98462.63
2022-08-12T08:50:27.097Z,98463.16
2022-08-12T08:52:40.409Z,98470.00
2022-08-12T08:54:48.847Z,98469.09
2022-08-12T08:56:54.150Z,98462.13
2022-08-12T08:58:59.217Z,98463.31
2022-08-12T09:01:04.332Z,98463.50
2022-08-12T09:04:21.167Z,98466.16
2022-08-12T09:06:01.745Z,98459.00
2022-08-12T09:08:13.088Z,98468.75
2022-08-12T09:10:31.278Z,98465.00
2022-08-12T09:12:54.793Z,98465.00
2022-08-12T09:15:00.487Z,98461.41
2022-08-12T09:17:05.627Z,98458.06
2022-08-12T09:19:27.097Z,98460.25
2022-08-12T09:21:54.083Z,98456.44
2022-08-12T09:26:29.006Z,98455.03
2022-08-12T09:28:36.904Z,98454.06
2022-08-12T09:30:44.762Z,98461.28
2022-08-12T09:33:04.161Z,98465.81
2022-08-12T09:35:22.075Z,98452.84
2022-08-12T09:37:28.438Z,98460.53
2022-08-12T09:40:06.286Z,98461.72
2022-08-12T09:42:43.300Z,98456.38
2022-08-12T09:45:18.056Z,98450.81
2022-08-12T09:47:29.321Z,98449.50
2022-08-12T09:49:41.378Z,98441.66
2022-08-12T09:51:47.642Z,98440.44
2022-08-12T09:54:08.763Z,98440.28
2022-08-12T09:56:58.036Z,98438.13
2022-08-12T09:59:00.344Z,98441.25
2022-08-12T10:01:14.815Z,98439.59
2022-08-12T10:03:31.992Z,98439.78
2022-08-12T10:06:11.857Z,98436.78
2022-08-12T10:08:11.402Z,98430.97
2022-08-12T10:10:22.849Z,98426.81
2022-08-12T10:13:07.741Z,98424.25
2022-08-12T10:15:15.266Z,98422.75
2022-08-12T10:17:36.355Z,98421.13
2022-08-12T10:20:01.420Z,98414.31
2022-08-12T10:22:17.235Z,98411.31
2022-08-12T10:24:32.539Z,98414.34
2022-08-12T10:26:51.225Z,98418.38
2022-08-12T10:30:01.081Z,98414.81
2022-08-12T10:32:01.666Z,98417.31
2022-08-12T10:34:06.659Z,98413.50
2022-08-12T10:36:19.365Z,98401.00
2022-08-12T10:38:39.051Z,98403.66
2022-08-12T10:40:58.913Z,98407.31
2022-08-12T10:43:16.988Z,98405.47
2022-08-12T10:45:24.547Z,98397.78
2022-08-12T10:48:07.746Z,98399.78
2022-08-12T10:50:10.490Z,98402.47
2022-08-12T10:52:34.059Z,98388.25
2022-08-12T10:54:46.348Z,98393.28
2022-08-12T10:56:58.297Z,98395.44
2022-08-12T10:59:03.951Z,98389.75
2022-08-12T11:01:50.254Z,98388.94
2022-08-12T11:04:23.649Z,98388.41
2022-08-12T11:07:03.566Z,98382.91
2022-08-12T11:08:37.319Z,98386.47
2022-08-12T11:10:47.564Z,98378.28
2022-08-12T11:13:00.243Z,98389.47
2022-08-12T11:15:19.219Z,98387.13
2022-08-12T11:17:43.198Z,98383.78
2022-08-12T11:19:53.830Z,98377.09
2022-08-12T11:22:01.336Z,98376.09
2022-08-12T11:24:10.246Z,98378.25
2022-08-12T11:26:35.310Z,98371.59
2022-08-12T11:28:40.460Z,98366.38
2022-08-12T11:30:45.525Z,98359.53
2022-08-12T11:32:52.960Z,98358.91
2022-08-12T11:35:01.020Z,98353.84
2022-08-12T11:37:24.820Z,98356.69
2022-08-12T11:41:56.743Z,98352.69
2022-08-12T11:44:35.651Z,98349.63
2022-08-12T11:46:30.547Z,98341.63
2022-08-12T11:48:52.430Z,98348.69
2022-08-12T11:50:58.700Z,98345.19
2022-08-12T11:53:03.565Z,98342.88
2022-08-12T11:55:14.944Z,98345.69
2022-08-12T11:58:06.994Z,98334.31
2022-08-12T12:02:20.443Z,98336.16
2022-08-12T12:04:29.532Z,98333.34
2022-08-12T12:06:35.250Z,98335.31
2022-08-12T12:08:43.360Z,98338.69
2022-08-12T12:10:53.107Z,98322.81
2022-08-12T12:12:57.992Z,98323.47
2022-08-12T12:15:06.957Z,98327.78
2022-08-12T12:17:14.413Z,98330.31
2022-08-12T12:19:19.467Z,98320.41
2022-08-12T12:21:47.272Z,98325.88
2022-08-12T12:23:51.873Z,98325.19
2022-08-12T12:26:06.647Z,98324.50
2022-08-12T12:28:35.268Z,98325.13
2022-08-12T12:30:39.091Z,98324.41
2022-08-12T12:32:59.817Z,98318.25
2022-08-12T12:35:14.636Z,98315.31
2022-08-12T12:38:03.848Z,98318.84
2022-08-12T12:39:57.042Z,98310.81
2022-08-12T12:42:55.831Z,98316.03
2022-08-12T12:44:38.521Z,98311.16
2022-08-12T12:46:46.762Z,98305.94
2022-08-12T12:48:51.808Z,98296.03
2022-08-12T12:51:10.310Z,98297.81
2022-08-12T12:54:06.813Z,98298.28
2022-08-12T12:55:47.428Z,98290.91
2022-08-12T12:58:00.009Z,98311.19
2022-08-12T13:00:19.019Z,98297.00
2022-08-12T13:02:31.584Z,98290.56
2022-08-12T13:04:37.473Z,98287.91
2022-08-12T13:06:42.659Z,98296.28
2022-08-12T13:08:49.888Z,98292.78
2022-08-12T13:11:03.574Z,98287.44
2022-08-12T13:14:07.230Z,98285.47
2022-08-12T13:15:45.154Z,98287.13
2022-08-12T13:18:02.035Z,98294.63
2022-08-12T13:20:10.257Z,98284.28
2022-08-12T13:22:23.441Z,98283.44
2022-08-12T13:24:31.841Z,98282.06
2022-08-12T13:26:37.953Z,98277.06
2022-08-12T13:28:49.596Z,98278.69
2022-08-12T13:30:59.534Z,98277.69
2022-08-12T13:33:06.239Z,98281.03
2022-08-12T13:35:33.275Z,98277.16
2022-08-12T13:37:54.914Z,98283.78
2022-08-12T13:40:03.057Z,98281.56
2022-08-12T13:42:14.386Z,98280.88
2022-08-12T13:44:20.603Z,98279.00
2022-08-12T13:46:25.581Z,98268.38
2022-08-12T13:48:30.779Z,98269.81
2022-08-12T13:50:39.069Z,98275.47
2022-08-12T13:52:46.350Z,98274.28
2022-08-12T13:54:56.064Z,98268.94
2022-08-12T13:57:03.999Z,98269.03
2022-08-12T13:59:16.256Z,98262.97
2022-08-12T14:01:22.557Z,98248.38
2022-08-12T14:03:28.686Z,98248.22
2022-08-12T14:05:56.088Z,98255.09
2022-08-12T14:08:02.887Z,98257.09
2022-08-12T14:10:21.100Z,98257.28
2022-08-12T14:12:53.800Z,98247.94
2022-08-12T14:15:00.607Z,98244.59
2022-08-12T14:17:09.998Z,98241.00
2022-08-12T14:19:21.934Z,98245.66
2022-08-12T14:21:30.129Z,98245.84
2022-08-12T14:24:05.569Z,98239.44
2022-08-12T14:26:21.403Z,98238.03
2022-08-12T14:28:31.289Z,98239.84
2022-08-12T14:30:36.190Z,98236.13
2022-08-12T14:32:41.138Z,98227.28
2022-08-12T14:34:46.046Z,98224.34
2022-08-12T14:36:50.612Z,98234.56
2022-08-12T14:38:59.067Z,98236.94
2022-08-12T14:41:08.628Z,98237.13
2022-08-12T14:43:14.203Z,98236.06
2022-08-12T14:45:24.712Z,98240.16
2022-08-12T14:47:58.367Z,98241.59
2022-08-12T14:50:58.419Z,98242.84
2022-08-12T14:53:50.680Z,98233.41
2022-08-12T14:57:23.811Z,98240.06
2022-08-12T14:59:58.172Z,98245.00
2022-08-12T15:02:06.275Z,98243.13
2022-08-12T15:04:17.353Z,98245.00
2022-08-12T15:06:44.167Z,98241.28
2022-08-12T15:08:48.232Z,98239.75
2022-08-12T15:10:54.109Z,98246.84
2022-08-12T15:12:59.014Z,98249.59
2022-08-12T15:15:04.295Z,98247.69
2022-08-12T15:17:37.324Z,98240.13
2022-08-12T15:20:27.817Z,98246.00
2022-08-12T15:22:36.048Z,98232.22
2022-08-12T15:24:29.479Z,98232.75
2022-08-12T15:26:40.790Z,98230.22
2022-08-12T15:28:51.582Z,98235.84
2022-08-12T15:31:00.936Z,98245.75
2022-08-12T15:33:12.647Z,98235.88
2022-08-12T15:35:20.630Z,98230.28
2022-08-12T15:38:09.065Z,98235.47
2022-08-12T15:39:55.391Z,98224.28
2022-08-12T15:42:06.527Z,98226.59
2022-08-12T15:44:36.939Z,98231.22
2022-08-12T15:46:37.029Z,98233.78
2022-08-12T15:48:47.000Z,98226.81
2022-08-12T15:50:53.184Z,98230.97
2022-08-12T15:53:14.677Z,98226.91
2022-08-12T15:55:21.504Z,98223.88
2022-08-12T15:57:26.490Z,98221.44
2022-08-12T15:59:32.640Z,98232.06
2022-08-12T16:01:57.764Z,98235.53
2022-08-12T16:04:06.430Z,98231.66
2022-08-12T16:06:18.986Z,98227.78
2022-08-12T16:08:40.179Z,98222.47
2022-08-12T16:10:46.085Z,98234.38
2022-08-12T16:12:55.359Z,98227.63
2022-08-12T16:15:01.726Z,98227.66
2022-08-12T16:17:08.994Z,98221.38
2022-08-12T16:20:03.122Z,98233.31
2022-08-12T16:21:51.454Z,98232.41
2022-08-12T16:23:58.252Z,98234.34
2022-08-12T16:26:06.010Z,98225.78
2022-08-12T16:28:23.287Z,98235.09
2022-08-12T16:30:34.952Z,98232.69
2022-08-12T16:32:46.421Z,98240.56
2022-08-12T16:35:01.626Z,98242.00
2022-08-12T16:37:13.277Z,98237.44
2022-08-12T16:39:19.481Z,98244.75
2022-08-12T16:41:25.713Z,98240.97
2022-08-12T16:43:35.303Z,98242.63
2022-08-12T16:46:05.001Z,98245.06
2022-08-12T16:48:05.368Z,98248.25
2022-08-12T16:50:16.288Z,98243.91
2022-08-12T16:52:21.541Z,98249.16
2022-08-12T16:54:36.345Z,98236.59
2022-08-12T16:56:50.579Z,98245.31
2022-08-12T16:59:00.688Z,98243.78
2022-08-12T17:01:06.773Z,98235.75
2022-08-12T17:03:13.687Z,98235.81
2022-08-12T17:05:36.211Z,98227.31
2022-08-12T17:07:52.474Z,98234.88
2022-08-12T17:09:58.140Z,98231.75
2022-08-12T17:12:02.714Z,98236.78
2022-08-12T17:14:07.819Z,98228.44
2022-08-12T17:16:17.740Z,98231.47
2022-08-12T17:18:43.979Z,98230.78
2022-08-12T17:20:51.350Z,98229.63
2022-08-12T17:22:57.520Z,98231.97
2022-08-12T17:25:04.700Z,98225.31
2022-08-12T17:27:19.488Z,98228.66
2022-08-12T17:30:01.151Z,98222.47
2022-08-12T17:32:00.612Z,98226.81
2022-08-12T17:34:17.424Z,98218.97
2022-08-12T17:36:26.430Z,98225.00
2022-08-12T17:38:31.266Z,98225.00
2022-08-12T17:40:37.375Z,98226.84
2022-08-12T17:42:47.850Z,98230.34
2022-08-12T17:44:53.608Z,98227.66
2022-08-12T17:46:59.431Z,98238.50
2022-08-12T17:49:06.563Z,98236.84
2022-08-12T17:51:31.489Z,98237.66
2022-08-12T17:53:43.354Z,98239.31
2022-08-12T17:56:03.559Z,98240.81
2022-08-12T17:58:09.049Z,98240.47
2022-08-12T18:00:18.724Z,98246.47
2022-08-12T18:02:30.817Z,98245.28
2022-08-12T18:04:36.529Z,98245.81
2022-08-12T18:06:50.297Z,98246.63
2022-08-12T18:08:58.852Z,98245.13
2022-08-12T18:12:04.341Z,98247.31
2022-08-12T18:13:42.897Z,98247.47
2022-08-12T18:16:05.620Z,98248.63
2022-08-12T18:18:16.640Z,98255.97
2022-08-12T18:20:23.715Z,98256.13
2022-08-12T18:22:34.098Z,98263.63
2022-08-12T18:24:39.430Z,98256.47
2022-08-12T18:26:44.424Z,98268.47
2022-08-12T18:28:49.239Z,98266.47
2022-08-12T18:30:56.655Z,98274.13
2022-08-12T18:33:07.016Z,98280.75
2022-08-12T18:35:17.730Z,98286.91
2022-08-12T18:37:42.364Z,98284.03
2022-08-12T18:40:02.747Z,98289.88
2022-08-12T18:42:08.261Z,98294.72
2022-08-12T18:44:15.049Z,98292.34
2022-08-12T18:46:20.882Z,98295.28
2022-08-12T18:48:28.309Z,98294.59
2022-08-12T18:50:49.136Z,98297.72
2022-08-12T18:52:56.409Z,98297.53
2022-08-12T18:55:08.286Z,98302.34
2022-08-12T18:57:45.602Z,98301.84
2022-08-12T19:00:02.465Z,98299.50
2022-08-12T19:02:21.584Z,98309.59
2022-08-12T19:04:31.382Z,98302.09
2022-08-12T19:06:39.462Z,98303.41
2022-08-12T19:08:47.158Z,98301.88
2022-08-12T19:11:17.538Z,98304.72
2022-08-12T19:13:36.121Z,98304.19
2022-08-12T19:15:43.167Z,98301.16
2022-08-12T19:18:00.512Z,98306.81
2022-08-12T19:20:11.377Z,98305.13
2022-08-12T19:22:28.838Z,98312.59
2022-08-12T19:24:48.537Z,98311.94
2022-08-12T19:26:58.583Z,98310.81
2022-08-12T19:29:05.239Z,98315.63
2022-08-12T19:31:56.301Z,98315.25
2022-08-12T19:34:23.832Z,98324.16
2022-08-12T19:36:26.587Z,98321.44
2022-08-12T19:38:32.506Z,98322.03
2022-08-12T19:40:39.604Z,98322.88
2022-08-12T19:42:53.560Z,98326.53
2022-08-12T19:45:01.625Z,98328.50
2022-08-12T19:47:12.026Z,98316.63
2022-08-12T19:49:22.445Z,98324.94
2022-08-12T19:51:34.013Z,98316.13
2022-08-12T19:53:57.307Z,98328.91
2022-08-12T19:56:02.986Z,98319.22
2022-08-12T19:58:17.950Z,98328.38
2022-08-12T20:00:26.575Z,98325.31
2022-08-12T20:02:33.068Z,98329.13
2022-08-12T20:04:40.258Z,98325.75
2022-08-12T20:06:48.593Z,98320.75
2022-08-12T20:08:57.140Z,98330.53
2022-08-12T20:12:10.229Z,98334.31
2022-08-12T20:13:37.382Z,98329.47
2022-08-12T20:15:45.011Z,98329.91
2022-08-12T20:17:51.624Z,98336.34
2022-08-12T20:20:17.385Z,98327.66
2022-08-12T20:22:31.480Z,98330.09
2022-08-12T20:24:37.606Z,98328.56
2022-08-12T20:26:43.754Z,98327.34
2022-08-12T20:28:51.191Z,98322.03
2022-08-12T20:30:59.888Z,98329.16
2022-08-12T20:33:05.336Z,98324.84
2022-08-12T20:35:11.981Z,98335.63
2022-08-12T20:38:06.660Z,98336.75
2022-08-12T20:39:56.716Z,98336.50
2022-08-12T20:42:06.187Z,98334.00
2022-08-12T20:44:18.403Z,98335.44
2022-08-12T20:46:28.113Z,98330.84
2022-08-12T20:48:34.165Z,98332.13
2022-08-12T20:50:42.917Z,98336.06
2022-08-12T20:52:58.393Z,98332.16
2022-08-12T20:55:03.514Z,98331.72
2022-08-12T20:57:10.152Z,98341.13
2022-08-12T20:59:21.535Z,98337.06
2022-08-12T21:01:29.245Z,98339.19
2022-08-12T21:03:58.185Z,98339.59
2022-08-12T21:06:15.740Z,98338.06
2022-08-12T21:08:22.213Z,98337.41
2022-08-12T21:10:27.285Z,98337.69
2022-08-12T21:12:34.394Z,98341.75
2022-08-12T21:14:53.196Z,98335.72
2022-08-12T21:16:59.342Z,98331.69
2022-08-12T21:19:07.907Z,98333.50
2022-08-12T21:21:23.897Z,98333.09
2022-08-12T21:23:43.926Z,98329.03
2022-08-12T21:25:49.176Z,98331.03
2022-08-12T21:27:59.196Z,98327.66
2022-08-12T21:30:14.222Z,98326.84
2022-08-12T21:32:39.537Z,98326.13
2022-08-12T21:34:44.323Z,98328.94
2022-08-12T21:36:52.956Z,98325.41
2022-08-12T21:39:01.117Z,98328.38
2022-08-12T21:41:15.638Z,98333.97
2022-08-12T21:43:21.083Z,98333.53
2022-08-12T21:45:46.083Z,98333.81
2022-08-12T21:47:53.825Z,98330.75
2022-08-12T21:50:03.973Z,98342.47
2022-08-12T21:52:14.655Z,98334.63
2022-08-12T21:54:21.936Z,98340.38
2022-08-12T21:56:34.668Z,98341.50
2022-08-12T21:58:40.725Z,98340.09
2022-08-12T22:00:48.470Z,98343.72
2022-08-12T22:03:05.791Z,98347.78
2022-08-12T22:05:31.047Z,98350.16
2022-08-12T22:07:43.041Z,98351.81
2022-08-12T22:09:56.919Z,98350.09
2022-08-12T22:12:24.164Z,98348.13
2022-08-12T22:14:30.133Z,98348.94
2022-08-12T22:16:37.658Z,98350.56
2022-08-12T22:18:53.090Z,98349.03
2022-08-12T22:20:59.475Z,98353.50
2022-08-12T22:23:05.343Z,98346.53
2022-08-12T22:25:14.382Z,98356.31
2022-08-12T22:27:32.507Z,98357.53
2022-08-12T22:29:50.819Z,98354.03
2022-08-12T22:31:59.017Z,98351.66
2022-08-12T22:34:03.966Z,98359.88
2022-08-12T22:36:11.153Z,98355.84
2022-08-12T22:38:19.542Z,98359.59
2022-08-12T22:40:24.476Z,98354.66
2022-08-12T22:42:42.653Z,98355.78
2022-08-12T22:45:02.781Z,98352.56
2022-08-12T22:47:53.144Z,98351.00
2022-08-12T22:49:53.521Z,98354.06
2022-08-12T22:52:08.626Z,98349.03
2022-08-12T22:54:20.850Z,98349.03
2022-08-12T22:56:39.308Z,98353.75
2022-08-12T22:58:46.278Z,98346.91
2022-08-12T23:00:53.076Z,98339.94
2022-08-12T23:03:03.144Z,98338.00
2022-08-12T23:05:10.479Z,98338.84
2022-08-12T23:07:15.482Z,98339.66
2022-08-12T23:09:24.497Z,98334.38
2022-08-12T23:11:36.252Z,98330.88
2022-08-12T23:13:45.883Z,98330.06
2022-08-12T23:15:54.494Z,98324.75
2022-08-12T23:18:02.746Z,98322.94
2022-08-12T23:20:10.740Z,98321.13
2022-08-12T23:22:37.111Z,98314.00
2022-08-12T23:24:55.905Z,98323.50
2022-08-12T23:27:15.103Z,98319.91
2022-08-12T23:29:26.053Z,98316.53
2022-08-12T23:32:02.303Z,98315.97
2022-08-12T23:34:03.518Z,98317.91
2022-08-12T23:36:08.701Z,98311.31
2022-08-12T23:38:31.153Z,98315.06
2022-08-12T23:40:38.039Z,98316.31
2022-08-12T23:42:44.562Z,98307.94
2022-08-12T23:44:52.503Z,98309.03
2022-08-12T23:46:59.243Z,98305.91
2022-08-12T23:49:55.763Z,98310.53
2022-08-12T23:51:35.615Z,98311.03
2022-08-12T23:53:43.035Z,98307.94
2022-08-12T23:55:49.912Z,98303.00
2022-08-12T23:58:20.598Z,98308.81
